createdAt,value
2022-11-18T00:01:19.729Z,42.30
2022-11-18T00:03:50.441Z,44.63
2022-11-18T00:06:20.191Z,37.27
2022-11-18T00:08:48.778Z,36.10
2022-11-18T00:11:38.576Z,41.77
2022-11-18T00:14:22.457Z,41.20
2022-11-18T00:16:53.350Z,47.67
2022-11-18T00:19:24.866Z,37.07
2022-11-18T00:21:53.055Z,38.63
2022-11-18T00:24:21.295Z,37.07
2022-11-18T00:26:49.687Z,35.13
2022-11-18T00:29:19.103Z,42.03
2022-11-18T00:31:47.546Z,32.87
2022-11-18T00:34:17.827Z,33.30
2022-11-18T00:36:48.565Z,32.60
2022-11-18T00:39:18.805Z,32.37
2022-11-18T00:42:05.142Z,33.60
2022-11-18T00:44:33.336Z,34.50
2022-11-18T00:47:01.513Z,33.27
2022-11-18T00:49:29.625Z,33.13
2022-11-18T00:51:59.135Z,32.30
2022-11-18T00:54:27.242Z,32.13
2022-11-18T00:56:55.421Z,34.20
2022-11-18T00:59:23.563Z,33.50
2022-11-18T01:01:51.789Z,35.80
2022-11-18T01:04:20.342Z,35.67
2022-11-18T01:06:48.444Z,36.60
2022-11-18T01:09:19.200Z,43.80
2022-11-18T01:12:05.075Z,35.13
2022-11-18T01:14:33.111Z,32.93
2022-11-18T01:17:01.214Z,33.17
2022-11-18T01:19:29.325Z,32.33
2022-11-18T01:22:03.056Z,33.13
2022-11-18T01:24:33.685Z,33.37
2022-11-18T01:27:03.194Z,32.20
2022-11-18T01:29:31.341Z,33.40
2022-11-18T01:32:23.288Z,33.73
2022-11-18T01:34:47.656Z,33.53
2022-11-18T01:37:15.836Z,33.57
2022-11-18T01:39:45.277Z,32.13
2022-11-18T01:42:19.139Z,33.43
2022-11-18T01:45:22.762Z,31.37
2022-11-18T01:47:56.976Z,32.97
2022-11-18T01:50:26.789Z,29.60
2022-11-18T01:52:57.428Z,32.70
2022-11-18T01:55:30.344Z,31.20
2022-11-18T02:02:12.019Z,31.73
2022-11-18T02:04:42.075Z,35.50
2022-11-18T02:07:11.630Z,32.23
2022-11-18T02:09:39.913Z,33.53
2022-11-18T02:12:10.128Z,32.60
2022-11-18T02:14:41.643Z,30.73
2022-11-18T02:17:18.703Z,31.30
2022-11-18T02:20:08.463Z,34.27
2022-11-18T02:22:49.980Z,32.17
2022-11-18T02:25:30.103Z,31.07
2022-11-18T02:28:24.280Z,32.53
2022-11-18T02:31:00.425Z,32.70
2022-11-18T02:33:35.121Z,29.50
2022-11-18T02:36:09.849Z,29.53
2022-11-18T02:38:44.520Z,29.37
2022-11-18T02:41:17.659Z,29.23
2022-11-18T02:43:49.006Z,29.33
2022-11-18T02:46:25.223Z,29.00
2022-11-18T02:48:54.961Z,30.83
2022-11-18T02:51:26.587Z,29.30
2022-11-18T02:53:57.942Z,28.30
2022-11-18T02:56:28.700Z,29.93
2022-11-18T02:58:56.889Z,31.97
2022-11-18T03:01:29.766Z,34.47
2022-11-18T03:03:58.134Z,32.20
2022-11-18T03:06:33.348Z,34.83
2022-11-18T03:09:10.461Z,33.60
2022-11-18T03:11:44.958Z,37.73
2022-11-18T03:14:24.897Z,39.67
2022-11-18T03:17:01.492Z,44.37
2022-11-18T03:19:42.349Z,36.93
2022-11-18T03:22:15.523Z,35.77
2022-11-18T03:24:50.571Z,37.33
2022-11-18T03:27:25.286Z,35.60
2022-11-18T03:30:00.241Z,34.53
2022-11-18T03:32:33.099Z,43.40
2022-11-18T03:35:05.526Z,30.30
2022-11-18T03:37:36.111Z,30.07
2022-11-18T03:40:12.768Z,31.57
2022-11-18T03:42:45.154Z,34.67
2022-11-18T03:45:34.610Z,34.10
2022-11-18T03:48:09.415Z,52.13
2022-11-18T03:50:41.718Z,38.07
2022-11-18T03:53:12.199Z,45.70
2022-11-18T03:55:43.055Z,30.97
2022-11-18T03:58:17.004Z,48.73
2022-11-18T04:00:49.604Z,42.27
2022-11-18T04:03:19.025Z,45.10
2022-11-18T04:05:53.290Z,41.30
2022-11-18T04:08:26.552Z,32.63
2022-11-18T04:11:00.835Z,35.43
2022-11-18T04:13:32.516Z,35.53
2022-11-18T04:16:01.146Z,51.67
2022-11-18T04:18:30.565Z,34.13
2022-11-18T04:20:58.572Z,34.50
2022-11-18T04:23:26.757Z,35.43
2022-11-18T04:25:54.820Z,35.77
2022-11-18T04:28:22.854Z,33.33
2022-11-18T04:30:51.030Z,34.50
2022-11-18T04:33:19.086Z,35.33
2022-11-18T04:35:49.383Z,35.67
2022-11-18T04:38:21.902Z,32.50
2022-11-18T04:40:50.323Z,33.07
2022-11-18T04:43:18.318Z,33.57
2022-11-18T04:45:46.516Z,35.27
2022-11-18T04:48:16.154Z,59.43
2022-11-18T04:50:44.263Z,35.53
2022-11-18T04:53:13.679Z,36.97
2022-11-18T04:55:41.812Z,37.67
2022-11-18T04:58:09.921Z,34.97
2022-11-18T05:00:37.982Z,41.47
2022-11-18T05:03:06.756Z,39.30
2022-11-18T05:05:36.203Z,38.60
2022-11-18T05:08:04.306Z,36.77
2022-11-18T05:10:33.980Z,37.23
2022-11-18T05:13:01.244Z,38.87
2022-11-18T05:15:29.498Z,37.93
2022-11-18T05:17:57.609Z,38.93
2022-11-18T05:20:25.689Z,41.63
2022-11-18T05:22:53.699Z,37.40
2022-11-18T05:25:21.796Z,38.80
2022-11-18T05:27:51.436Z,36.50
2022-11-18T05:30:19.710Z,42.80
2022-11-18T05:32:47.968Z,40.03
2022-11-18T05:35:16.145Z,39.57
2022-11-18T05:37:44.620Z,36.10
2022-11-18T05:40:14.168Z,38.30
2022-11-18T05:43:01.251Z,39.07
2022-11-18T05:45:31.234Z,37.60
2022-11-18T05:48:04.925Z,35.50
2022-11-18T05:50:33.974Z,38.57
2022-11-18T05:53:02.611Z,53.00
2022-11-18T05:55:36.668Z,38.00
2022-11-18T05:58:04.786Z,40.47
2022-11-18T06:00:34.946Z,39.27
2022-11-18T06:03:05.049Z,43.50
2022-11-18T06:05:33.256Z,37.17
2022-11-18T06:08:01.258Z,42.53
2022-11-18T06:10:31.516Z,37.90
2022-11-18T06:13:05.145Z,43.30
2022-11-18T06:15:38.125Z,41.33
2022-11-18T06:18:10.072Z,37.63
2022-11-18T06:20:41.755Z,38.40
2022-11-18T06:23:10.308Z,38.67
2022-11-18T06:25:41.164Z,38.33
2022-11-18T06:28:11.922Z,36.87
2022-11-18T06:30:41.552Z,36.00
2022-11-18T06:33:10.147Z,33.13
2022-11-18T06:35:38.921Z,34.63
2022-11-18T06:38:07.342Z,32.33
2022-11-18T06:40:35.357Z,41.53
2022-11-18T06:43:24.719Z,35.70
2022-11-18T06:46:26.667Z,49.10
2022-11-18T06:48:54.974Z,34.77
2022-11-18T06:51:23.611Z,33.50
2022-11-18T06:53:52.040Z,33.63
2022-11-18T06:56:21.600Z,33.20
2022-11-18T06:58:54.168Z,36.83
2022-11-18T07:01:25.485Z,33.70
2022-11-18T07:03:54.502Z,35.13
2022-11-18T07:06:26.414Z,33.67
2022-11-18T07:08:54.946Z,33.30
2022-11-18T07:11:25.797Z,34.80
2022-11-18T07:13:54.228Z,35.83
2022-11-18T07:16:25.672Z,33.80
2022-11-18T07:18:55.805Z,34.33
2022-11-18T07:21:25.487Z,35.07
2022-11-18T07:23:53.826Z,33.77
2022-11-18T07:26:22.295Z,38.03
2022-11-18T07:28:50.466Z,45.13
2022-11-18T07:31:21.188Z,37.97
2022-11-18T07:33:53.707Z,40.17
2022-11-18T07:36:23.880Z,37.93
2022-11-18T07:38:52.627Z,34.73
2022-11-18T07:41:24.088Z,36.43
2022-11-18T07:43:59.013Z,37.67
2022-11-18T07:46:30.318Z,37.77
2022-11-18T07:49:01.570Z,36.00
2022-11-18T07:51:31.534Z,33.27
2022-11-18T07:53:59.594Z,31.90
2022-11-18T07:56:28.187Z,32.90
2022-11-18T07:58:57.073Z,31.87
2022-11-18T08:10:48.786Z,28.70
2022-11-18T08:13:18.134Z,29.80
2022-11-18T08:15:46.122Z,27.57
2022-11-18T08:18:14.228Z,29.40
2022-11-18T08:20:42.262Z,30.13
2022-11-18T08:23:10.277Z,29.73
2022-11-18T08:25:38.743Z,27.43
2022-11-18T08:28:08.464Z,30.17
2022-11-18T08:30:37.239Z,30.87
2022-11-18T08:33:05.466Z,30.00
2022-11-18T08:35:34.408Z,30.10
2022-11-18T08:38:02.878Z,29.07
2022-11-18T08:40:30.963Z,32.53
2022-11-18T08:42:59.052Z,31.17
2022-11-18T08:45:28.555Z,30.97
2022-11-18T08:47:56.631Z,31.60
2022-11-18T08:50:24.765Z,37.10
2022-11-18T08:52:52.842Z,38.40
2022-11-18T08:55:20.849Z,38.63
2022-11-18T08:57:49.725Z,40.23
2022-11-18T09:00:18.813Z,37.37
2022-11-18T09:02:48.424Z,37.77
2022-11-18T09:05:16.671Z,40.40
2022-11-18T09:07:44.870Z,40.30
2022-11-18T09:10:12.912Z,41.27
2022-11-18T09:12:40.964Z,40.27
2022-11-18T09:17:59.999Z,41.50
2022-11-18T09:20:28.473Z,40.27
2022-11-18T09:22:56.618Z,38.23
2022-11-18T09:25:24.720Z,38.33
2022-11-18T09:27:53.146Z,38.30
2022-11-18T09:30:21.487Z,38.57
2022-11-18T09:32:50.705Z,35.20
2022-11-18T09:35:20.235Z,37.40
2022-11-18T09:37:48.311Z,38.43
2022-11-18T09:40:19.156Z,37.27
2022-11-18T09:42:59.048Z,40.07
2022-11-18T09:45:33.807Z,40.17
2022-11-18T09:48:18.006Z,40.53
2022-11-18T09:50:50.063Z,38.43
2022-11-18T09:53:21.524Z,41.60
2022-11-18T09:55:51.522Z,39.10
2022-11-18T09:58:34.323Z,41.07
2022-11-18T10:01:03.129Z,41.33
2022-11-18T10:03:32.837Z,40.07
2022-11-18T10:06:16.952Z,41.10
2022-11-18T10:09:08.245Z,33.97
2022-11-18T10:11:45.185Z,37.13
2022-11-18T10:14:28.210Z,37.90
2022-11-18T10:17:11.883Z,36.13
2022-11-18T10:19:44.276Z,35.73
2022-11-18T10:22:24.830Z,37.90
2022-11-18T10:24:54.717Z,35.13
2022-11-18T10:27:24.650Z,34.87
2022-11-18T10:29:58.563Z,36.37
2022-11-18T10:32:26.855Z,36.43
2022-11-18T10:34:57.408Z,37.43
2022-11-18T10:40:27.562Z,39.20
2022-11-18T10:42:56.124Z,39.40
2022-11-18T10:45:28.204Z,41.07
2022-11-18T10:48:08.241Z,42.73
2022-11-18T10:50:37.683Z,43.63
2022-11-18T10:53:27.346Z,45.83
2022-11-18T10:56:00.287Z,50.13
2022-11-18T10:58:31.982Z,51.93
2022-11-18T11:01:07.528Z,54.97
2022-11-18T11:03:39.009Z,56.00
2022-11-18T11:06:38.139Z,57.90
2022-11-18T11:09:10.943Z,53.90
2022-11-18T11:11:43.401Z,51.73
2022-11-18T11:14:28.411Z,53.00
2022-11-18T11:17:05.784Z,50.73
2022-11-18T11:19:49.449Z,53.27
2022-11-18T11:22:17.774Z,54.77
2022-11-18T11:24:47.691Z,59.00
2022-11-18T11:30:29.260Z,54.47
2022-11-18T11:33:23.124Z,54.63
2022-11-18T11:36:10.691Z,51.23
2022-11-18T11:38:51.111Z,52.47
2022-11-18T11:41:24.636Z,54.60
2022-11-18T11:44:13.741Z,54.13
2022-11-18T11:47:08.808Z,54.17
2022-11-18T11:49:50.601Z,54.17
2022-11-18T11:52:26.464Z,55.13
2022-11-18T11:55:02.986Z,54.07
2022-11-18T11:57:43.903Z,53.57
2022-11-18T12:00:16.131Z,55.17
2022-11-18T12:02:58.790Z,55.20
2022-11-18T12:05:34.440Z,53.13
2022-11-18T12:08:05.428Z,51.13
2022-11-18T12:10:49.581Z,52.60
2022-11-18T12:13:34.298Z,49.80
2022-11-18T12:16:12.159Z,47.97
2022-11-18T12:18:44.972Z,49.33
2022-11-18T12:21:46.509Z,47.77
2022-11-18T12:24:33.340Z,48.13
2022-11-18T12:27:03.156Z,47.47
2022-11-18T12:29:40.978Z,44.60
2022-11-18T12:32:29.860Z,44.23
2022-11-18T12:35:02.735Z,44.63
2022-11-18T12:37:46.438Z,45.13
2022-11-18T12:40:34.424Z,44.43
2022-11-18T12:43:20.598Z,46.63
2022-11-18T12:45:55.863Z,44.97
2022-11-18T12:48:41.442Z,43.67
2022-11-18T12:51:47.971Z,48.03
2022-11-18T12:54:29.646Z,44.40
2022-11-18T12:57:01.060Z,45.77
2022-11-18T12:59:35.758Z,45.80
2022-11-18T13:02:16.798Z,49.70
2022-11-18T13:04:48.599Z,46.90
2022-11-18T13:07:37.798Z,46.83
2022-11-18T13:10:21.408Z,48.93
2022-11-18T13:12:50.368Z,47.53
2022-11-18T13:15:37.598Z,46.63
2022-11-18T13:18:16.605Z,45.87
2022-11-18T13:20:45.568Z,47.30
2022-11-18T13:23:46.975Z,47.40
2022-11-18T13:26:20.593Z,52.83
2022-11-18T13:29:16.993Z,49.80
2022-11-18T13:31:53.511Z,48.67
2022-11-18T13:34:26.102Z,48.30
2022-11-18T13:36:56.555Z,45.57
2022-11-18T13:39:26.530Z,47.77
2022-11-18T13:42:05.688Z,45.87
2022-11-18T13:44:35.105Z,50.23
2022-11-18T13:47:12.990Z,47.07
2022-11-18T13:49:55.608Z,48.37
2022-11-18T13:52:29.142Z,48.00
2022-11-18T13:55:00.288Z,48.33
2022-11-18T13:57:30.333Z,49.70
2022-11-18T14:00:20.819Z,47.73
2022-11-18T14:02:59.391Z,53.13
2022-11-18T14:05:29.390Z,52.97
2022-11-18T14:08:02.218Z,54.63
2022-11-18T14:10:40.148Z,57.73
2022-11-18T14:13:19.155Z,54.53
2022-11-18T14:15:47.713Z,51.27
2022-11-18T14:18:22.623Z,55.17
2022-11-18T14:20:56.170Z,54.77
2022-11-18T14:23:30.919Z,54.93
2022-11-18T14:26:00.672Z,57.40
2022-11-18T14:28:34.043Z,54.63
2022-11-18T14:31:05.146Z,56.30
2022-11-18T14:33:34.485Z,54.40
2022-11-18T14:36:10.826Z,58.57
2022-11-18T14:39:11.244Z,55.77
2022-11-18T14:41:50.909Z,57.60
2022-11-18T14:44:20.614Z,56.57
2022-11-18T14:46:52.433Z,54.03
2022-11-18T14:49:24.134Z,58.20
2022-11-18T14:51:54.797Z,63.73
2022-11-18T14:54:26.837Z,55.60
2022-11-18T14:56:58.475Z,57.50
2022-11-18T14:59:26.707Z,53.60
2022-11-18T15:01:55.121Z,54.23
2022-11-18T15:04:23.354Z,52.13
2022-11-18T15:06:51.364Z,52.30
2022-11-18T15:09:20.749Z,51.53
2022-11-18T15:11:48.822Z,50.17
2022-11-18T15:14:17.403Z,57.77
2022-11-18T15:16:45.627Z,54.57
2022-11-18T15:19:16.719Z,53.37
2022-11-18T15:21:45.615Z,55.30
2022-11-18T15:24:13.917Z,56.70
2022-11-18T15:26:45.467Z,50.70
2022-11-18T15:29:17.866Z,53.13
2022-11-18T15:31:46.069Z,49.43
2022-11-18T15:34:14.672Z,46.20
2022-11-18T15:36:42.958Z,48.23
2022-11-18T15:39:12.087Z,48.73
2022-11-18T15:41:41.698Z,48.73
2022-11-18T15:44:12.787Z,52.87
2022-11-18T15:46:40.913Z,46.83
2022-11-18T15:49:13.531Z,50.40
2022-11-18T15:51:42.195Z,54.43
2022-11-18T15:54:10.635Z,53.50
2022-11-18T15:56:39.954Z,58.20
2022-11-18T15:59:11.076Z,56.30
2022-11-18T16:01:43.022Z,51.33
2022-11-18T16:04:13.756Z,52.70
2022-11-18T16:06:43.527Z,57.90
2022-11-18T16:09:12.796Z,54.53
2022-11-18T16:11:58.529Z,51.07
2022-11-18T16:14:26.981Z,53.17
2022-11-18T16:16:57.991Z,50.47
2022-11-18T16:19:31.596Z,51.53
2022-11-18T16:21:59.687Z,49.27
2022-11-18T16:24:29.906Z,52.13
2022-11-18T16:26:58.624Z,53.53
2022-11-18T16:29:26.713Z,55.93
2022-11-18T16:31:56.320Z,56.00
2022-11-18T16:34:26.183Z,52.37
2022-11-18T16:36:55.431Z,52.90
2022-11-18T16:39:25.995Z,52.27
2022-11-18T16:41:55.619Z,53.87
2022-11-18T16:44:24.391Z,54.87
2022-11-18T16:46:54.088Z,55.20
2022-11-18T16:49:26.132Z,58.87
2022-11-18T16:51:56.143Z,58.53
2022-11-18T16:54:25.591Z,57.17
2022-11-18T16:56:55.006Z,55.67
2022-11-18T16:59:24.544Z,57.20
2022-11-18T17:01:54.000Z,61.03
2022-11-18T17:04:24.574Z,67.93
2022-11-18T17:06:53.184Z,65.77
2022-11-18T17:09:22.999Z,64.27
2022-11-18T17:11:52.612Z,58.80
2022-11-18T17:14:21.976Z,61.73
2022-11-18T17:16:51.235Z,60.83
2022-11-18T17:19:21.847Z,59.87
2022-11-18T17:21:52.604Z,56.93
2022-11-18T17:24:22.519Z,56.17
2022-11-18T17:26:52.252Z,56.90
2022-11-18T17:29:21.199Z,60.23
2022-11-18T17:31:49.948Z,53.97
2022-11-18T17:34:19.088Z,53.13
2022-11-18T17:36:47.383Z,55.27
2022-11-18T17:39:18.154Z,52.27
2022-11-18T17:42:03.874Z,57.20
2022-11-18T17:44:32.184Z,50.30
2022-11-18T17:47:00.218Z,48.17
2022-11-18T17:49:28.227Z,49.93
2022-11-18T17:51:56.370Z,49.30
2022-11-18T17:54:26.133Z,49.43
2022-11-18T17:56:54.299Z,45.50
2022-11-18T17:59:23.198Z,43.27
2022-11-18T18:01:57.553Z,43.03
2022-11-18T18:04:27.525Z,45.53
2022-11-18T18:06:55.897Z,45.17
2022-11-18T18:09:30.546Z,46.00
2022-11-18T18:11:58.960Z,45.80
2022-11-18T18:14:26.055Z,45.33
2022-11-18T18:16:55.462Z,46.20
2022-11-18T18:19:24.639Z,42.57
2022-11-18T18:21:53.530Z,44.80
2022-11-18T18:24:22.372Z,45.50
2022-11-18T18:26:52.377Z,45.87
2022-11-18T18:29:20.429Z,44.00
2022-11-18T18:31:48.442Z,42.90
2022-11-18T18:34:18.046Z,48.60
2022-11-18T18:36:46.281Z,45.00
2022-11-18T18:39:15.486Z,47.90
2022-11-18T18:41:43.701Z,47.53
2022-11-18T18:44:18.341Z,47.57
2022-11-18T18:46:46.038Z,50.03
2022-11-18T18:49:15.969Z,48.57
2022-11-18T18:51:45.879Z,46.40
2022-11-18T18:54:16.552Z,46.90
2022-11-18T18:56:46.768Z,48.77
2022-11-18T18:59:16.328Z,47.00
2022-11-18T19:01:45.367Z,47.37
2022-11-18T19:04:16.716Z,48.20
2022-11-18T19:06:59.994Z,46.97
2022-11-18T19:09:28.528Z,51.23
2022-11-18T19:12:13.946Z,50.07
2022-11-18T19:14:43.808Z,48.07
2022-11-18T19:17:13.197Z,48.00
2022-11-18T19:20:00.555Z,48.27
2022-11-18T19:22:30.561Z,49.77
2022-11-18T19:24:59.409Z,47.53
2022-11-18T19:27:27.799Z,49.80
2022-11-18T19:29:57.256Z,57.63
2022-11-18T19:32:25.484Z,58.87
2022-11-18T19:34:53.605Z,60.03
2022-11-18T19:37:21.770Z,56.03
2022-11-18T19:39:49.911Z,55.97
2022-11-18T19:42:17.965Z,58.97
2022-11-18T19:44:46.596Z,54.60
2022-11-18T19:47:16.278Z,59.07
2022-11-18T19:49:44.469Z,56.87
2022-11-18T19:52:12.891Z,58.47
2022-11-18T19:54:41.566Z,58.83
2022-11-18T19:57:10.344Z,55.37
2022-11-18T19:59:38.440Z,51.70
2022-11-18T20:02:07.529Z,52.23
2022-11-18T20:04:37.139Z,50.87
2022-11-18T20:07:05.716Z,50.07
2022-11-18T20:09:34.016Z,48.33
2022-11-18T20:12:02.174Z,50.63
2022-11-18T20:14:30.646Z,51.43
2022-11-18T20:16:58.807Z,51.27
2022-11-18T20:19:27.006Z,52.83
2022-11-18T20:21:56.743Z,51.63
2022-11-18T20:24:24.832Z,51.63
2022-11-18T20:26:52.903Z,51.10
2022-11-18T20:29:21.546Z,51.77
2022-11-18T20:31:51.408Z,49.73
2022-11-18T20:34:19.541Z,49.07
2022-11-18T20:36:51.838Z,48.17
2022-11-18T20:39:21.909Z,50.53
2022-11-18T20:42:06.501Z,48.90
2022-11-18T20:44:34.558Z,48.77
2022-11-18T20:47:02.594Z,48.37
2022-11-18T20:49:30.756Z,48.53
2022-11-18T20:51:58.832Z,46.30
2022-11-18T20:54:28.296Z,46.43
2022-11-18T20:56:56.365Z,48.33
2022-11-18T20:59:24.825Z,48.43
2022-11-18T21:01:53.038Z,45.17
2022-11-18T21:04:21.246Z,45.90
2022-11-18T21:06:49.331Z,45.40
2022-11-18T21:09:17.738Z,43.80
2022-11-18T21:11:47.357Z,44.40
2022-11-18T21:14:23.270Z,45.30
2022-11-18T21:16:52.873Z,45.53
2022-11-18T21:19:22.377Z,44.07
2022-11-18T21:21:52.718Z,44.93
2022-11-18T21:24:23.085Z,43.63
2022-11-18T21:26:55.735Z,42.83
2022-11-18T21:29:25.116Z,42.20
2022-11-18T21:31:54.470Z,44.70
2022-11-18T21:34:23.359Z,44.80
2022-11-18T21:36:54.655Z,45.47
2022-11-18T21:39:23.583Z,43.33
2022-11-18T21:41:57.638Z,41.37
2022-11-18T21:44:28.184Z,41.77
2022-11-18T21:46:56.999Z,45.23
2022-11-18T21:49:25.038Z,44.87
2022-11-18T21:51:53.175Z,41.03
2022-11-18T21:54:21.201Z,39.83
2022-11-18T21:56:49.401Z,40.77
2022-11-18T21:59:19.241Z,41.77
2022-11-18T22:01:47.535Z,39.40
2022-11-18T22:04:37.699Z,40.03
2022-11-18T22:07:06.445Z,41.97
2022-11-18T22:09:36.810Z,42.13
2022-11-18T22:12:07.937Z,41.67
2022-11-18T22:14:37.951Z,42.47
2022-11-18T22:17:06.325Z,39.67
2022-11-18T22:19:35.488Z,36.73
2022-11-18T22:22:03.627Z,38.50
2022-11-18T22:24:31.709Z,41.50
2022-11-18T22:26:59.806Z,44.97
2022-11-18T22:29:27.887Z,44.63
2022-11-18T22:31:57.709Z,45.27
2022-11-18T22:34:26.537Z,43.43
2022-11-18T22:36:54.580Z,46.07
2022-11-18T22:39:22.962Z,45.87
2022-11-18T22:42:08.790Z,43.57
2022-11-18T22:44:36.760Z,42.67
2022-11-18T22:47:06.825Z,42.83
2022-11-18T22:49:34.891Z,46.67
2022-11-18T22:52:03.013Z,47.57
2022-11-18T22:54:38.904Z,49.27
2022-11-18T22:57:07.976Z,44.87
2022-11-18T22:59:36.061Z,43.27
2022-11-18T23:02:06.209Z,43.07
2022-11-18T23:04:34.380Z,40.97
2022-11-18T23:07:02.683Z,42.30
2022-11-18T23:09:30.760Z,43.10
2022-11-18T23:12:16.176Z,42.63
2022-11-18T23:14:44.337Z,40.13
2022-11-18T23:17:13.958Z,40.13
2022-11-18T23:19:43.932Z,41.70
2022-11-18T23:22:12.354Z,39.53
2022-11-18T23:24:40.476Z,39.50
2022-11-18T23:27:08.562Z,41.73
2022-11-18T23:29:36.729Z,42.13
2022-11-18T23:32:05.071Z,41.97
2022-11-18T23:34:34.579Z,42.37
2022-11-18T23:37:02.865Z,44.17
2022-11-18T23:39:30.972Z,41.80
2022-11-18T23:41:59.171Z,42.77
2022-11-18T23:44:41.051Z,42.20
2022-11-18T23:47:09.735Z,42.43
2022-11-18T23:49:39.141Z,43.50
2022-11-18T23:52:07.275Z,46.10
2022-11-18T23:54:35.447Z,45.53
2022-11-18T23:57:05.469Z,45.47
2022-11-18T23:59:33.862Z,47.77
